sensor_id;sensor_type;location;lat;lon;timestamp;temperature;humidity
27567;DHT22;15006;48.584;9.186;2023-11-19T00:00:50;5.00;99.90
27567;DHT22;15006;48.584;9.186;2023-11-19T00:03:17;5.10;99.90
27567;DHT22;15006;48.584;9.186;2023-11-19T00:05:43;5.10;99.90
27567;DHT22;15006;48.584;9.186;2023-11-19T00:08:10;5.10;99.90
27567;DHT22;15006;48.584;9.186;2023-11-19T00:10:36;5.10;99.90
27567;DHT22;15006;48.584;9.186;2023-11-19T00:13:01;5.20;99.90
27567;DHT22;15006;48.584;9.186;2023-11-19T00:15:30;5.20;99.90
27567;DHT22;15006;48.584;9.186;2023-11-19T00:17:56;5.30;99.90
27567;DHT22;15006;48.584;9.186;2023-11-19T00:20:22;5.20;99.90
27567;DHT22;15006;48.584;9.186;2023-11-19T00:22:48;5.30;99.90
27567;DHT22;15006;48.584;9.186;2023-11-19T00:25:16;5.40;99.90
27567;DHT22;15006;48.584;9.186;2023-11-19T00:27:43;5.30;99.90
27567;DHT22;15006;48.584;9.186;2023-11-19T00:30:13;5.40;99.90
27567;DHT22;15006;48.584;9.186;2023-11-19T00:32:39;5.40;99.90
27567;DHT22;15006;48.584;9.186;2023-11-19T00:35:06;5.40;99.90
27567;DHT22;15006;48.584;9.186;2023-11-19T00:37:32;5.40;99.90
27567;DHT22;15006;48.584;9.186;2023-11-19T00:39:58;5.50;99.90
27567;DHT22;15006;48.584;9.186;2023-11-19T00:42:24;5.50;99.90
27567;DHT22;15006;48.584;9.186;2023-11-19T00:44:51;5.50;99.90
27567;DHT22;15006;48.584;9.186;2023-11-19T00:47:17;5.50;99.90
27567;DHT22;15006;48.584;9.186;2023-11-19T00:49:49;5.50;99.90
27567;DHT22;15006;48.584;9.186;2023-11-19T00:52:15;5.50;99.90
27567;DHT22;15006;48.584;9.186;2023-11-19T00:54:42;5.50;99.90
27567;DHT22;15006;48.584;9.186;2023-11-19T00:57:08;5.50;99.90
27567;DHT22;15006;48.584;9.186;2023-11-19T00:59:33;5.60;99.90
27567;DHT22;15006;48.584;9.186;2023-11-19T01:01:59;5.60;99.90
27567;DHT22;15006;48.584;9.186;2023-11-19T01:04:35;5.60;99.90
27567;DHT22;15006;48.584;9.186;2023-11-19T01:07:01;5.60;99.90
27567;DHT22;15006;48.584;9.186;2023-11-19T01:09:29;5.60;99.90
27567;DHT22;15006;48.584;9.186;2023-11-19T01:11:57;5.60;99.90
27567;DHT22;15006;48.584;9.186;2023-11-19T01:14:25;5.60;99.90
27567;DHT22;15006;48.584;9.186;2023-11-19T01:16:52;5.60;99.90
27567;DHT22;15006;48.584;9.186;2023-11-19T01:19:20;5.60;99.90
27567;DHT22;15006;48.584;9.186;2023-11-19T01:21:48;5.60;99.90
27567;DHT22;15006;48.584;9.186;2023-11-19T01:24:14;5.60;99.90
27567;DHT22;15006;48.584;9.186;2023-11-19T01:26:41;5.70;99.90
27567;DHT22;15006;48.584;9.186;2023-11-19T01:29:13;5.70;99.90
27567;DHT22;15006;48.584;9.186;2023-11-19T01:31:40;5.70;99.90
27567;DHT22;15006;48.584;9.186;2023-11-19T01:34:10;5.70;99.90
27567;DHT22;15006;48.584;9.186;2023-11-19T01:36:37;5.70;99.90
27567;DHT22;15006;48.584;9.186;2023-11-19T01:39:03;5.70;99.90
27567;DHT22;15006;48.584;9.186;2023-11-19T01:41:35;5.70;99.90
27567;DHT22;15006;48.584;9.186;2023-11-19T01:44:02;5.70;99.90
27567;DHT22;15006;48.584;9.186;2023-11-19T01:46:28;5.70;99.90
27567;DHT22;15006;48.584;9.186;2023-11-19T01:48:54;5.70;99.90
27567;DHT22;15006;48.584;9.186;2023-11-19T01:51:21;5.70;99.90
27567;DHT22;15006;48.584;9.186;2023-11-19T01:53:47;5.80;99.90
27567;DHT22;15006;48.584;9.186;2023-11-19T01:56:14;5.80;99.90
27567;DHT22;15006;48.584;9.186;2023-11-19T01:58:40;5.80;99.90
27567;DHT22;15006;48.584;9.186;2023-11-19T02:01:06;5.80;99.90
27567;DHT22;15006;48.584;9.186;2023-11-19T02:03:33;5.80;99.90
27567;DHT22;15006;48.584;9.186;2023-11-19T02:05:59;5.80;99.90
27567;DHT22;15006;48.584;9.186;2023-11-19T02:08:26;5.90;99.90
27567;DHT22;15006;48.584;9.186;2023-11-19T02:10:52;5.90;99.90
27567;DHT22;15006;48.584;9.186;2023-11-19T02:13:20;5.90;99.90
27567;DHT22;15006;48.584;9.186;2023-11-19T02:15:46;5.90;99.90
27567;DHT22;15006;48.584;9.186;2023-11-19T02:18:25;6.00;99.90
27567;DHT22;15006;48.584;9.186;2023-11-19T02:20:55;6.00;99.90
27567;DHT22;15006;48.584;9.186;2023-11-19T02:23:21;6.00;99.90
27567;DHT22;15006;48.584;9.186;2023-11-19T02:25:52;6.00;99.90
27567;DHT22;15006;48.584;9.186;2023-11-19T02:28:26;6.00;99.90
27567;DHT22;15006;48.584;9.186;2023-11-19T02:30:52;6.10;99.90
27567;DHT22;15006;48.584;9.186;2023-11-19T02:33:18;6.20;99.90
27567;DHT22;15006;48.584;9.186;2023-11-19T02:35:44;6.10;99.90
27567;DHT22;15006;48.584;9.186;2023-11-19T02:38:10;6.20;99.90
27567;DHT22;15006;48.584;9.186;2023-11-19T02:40:36;6.20;99.90
27567;DHT22;15006;48.584;9.186;2023-11-19T02:43:02;6.20;99.90
27567;DHT22;15006;48.584;9.186;2023-11-19T02:45:30;6.20;99.90
27567;DHT22;15006;48.584;9.186;2023-11-19T02:47:56;6.30;99.90
27567;DHT22;15006;48.584;9.186;2023-11-19T02:50:22;6.30;99.90
27567;DHT22;15006;48.584;9.186;2023-11-19T02:52:52;6.30;99.90
27567;DHT22;15006;48.584;9.186;2023-11-19T02:55:19;6.30;99.90
27567;DHT22;15006;48.584;9.186;2023-11-19T02:57:45;6.40;99.90
27567;DHT22;15006;48.584;9.186;2023-11-19T03:02:41;6.40;99.90
27567;DHT22;15006;48.584;9.186;2023-11-19T03:05:14;6.50;99.90
27567;DHT22;15006;48.584;9.186;2023-11-19T03:07:42;6.40;99.90
27567;DHT22;15006;48.584;9.186;2023-11-19T03:10:12;6.50;99.90
27567;DHT22;15006;48.584;9.186;2023-11-19T03:12:41;6.50;99.90
27567;DHT22;15006;48.584;9.186;2023-11-19T03:15:07;6.60;99.90
27567;DHT22;15006;48.584;9.186;2023-11-19T03:17:40;6.60;99.90
27567;DHT22;15006;48.584;9.186;2023-11-19T03:20:07;6.60;99.90
27567;DHT22;15006;48.584;9.186;2023-11-19T03:22:53;6.70;99.90
27567;DHT22;15006;48.584;9.186;2023-11-19T03:25:20;6.70;99.90
27567;DHT22;15006;48.584;9.186;2023-11-19T03:27:45;6.70;99.90
27567;DHT22;15006;48.584;9.186;2023-11-19T03:30:11;6.80;99.90
27567;DHT22;15006;48.584;9.186;2023-11-19T03:32:38;6.80;99.90
27567;DHT22;15006;48.584;9.186;2023-11-19T03:35:04;6.80;99.90
27567;DHT22;15006;48.584;9.186;2023-11-19T03:37:32;6.80;99.90
27567;DHT22;15006;48.584;9.186;2023-11-19T03:39:59;6.80;99.90
27567;DHT22;15006;48.584;9.186;2023-11-19T03:42:28;6.80;99.90
27567;DHT22;15006;48.584;9.186;2023-11-19T03:44:56;6.90;99.90
27567;DHT22;15006;48.584;9.186;2023-11-19T03:47:22;6.90;99.90
27567;DHT22;15006;48.584;9.186;2023-11-19T03:49:51;6.90;99.90
27567;DHT22;15006;48.584;9.186;2023-11-19T03:52:17;6.90;99.90
27567;DHT22;15006;48.584;9.186;2023-11-19T03:54:44;6.90;99.90
27567;DHT22;15006;48.584;9.186;2023-11-19T03:57:12;6.90;99.90
27567;DHT22;15006;48.584;9.186;2023-11-19T03:59:38;6.90;99.90
27567;DHT22;15006;48.584;9.186;2023-11-19T04:02:04;7.00;99.90
27567;DHT22;15006;48.584;9.186;2023-11-19T04:04:30;7.00;99.90
27567;DHT22;15006;48.584;9.186;2023-11-19T04:06:56;7.00;99.90
27567;DHT22;15006;48.584;9.186;2023-11-19T04:09:23;7.00;99.90
27567;DHT22;15006;48.584;9.186;2023-11-19T04:11:49;7.00;99.90
27567;DHT22;15006;48.584;9.186;2023-11-19T04:14:32;7.00;99.90
27567;DHT22;15006;48.584;9.186;2023-11-19T04:16:57;7.00;99.90
27567;DHT22;15006;48.584;9.186;2023-11-19T04:19:23;7.00;99.90
27567;DHT22;15006;48.584;9.186;2023-11-19T04:21:50;7.10;99.90
27567;DHT22;15006;48.584;9.186;2023-11-19T04:24:16;7.10;99.90
27567;DHT22;15006;48.584;9.186;2023-11-19T04:26:42;7.10;99.90
27567;DHT22;15006;48.584;9.186;2023-11-19T04:29:11;7.10;99.90
27567;DHT22;15006;48.584;9.186;2023-11-19T04:31:38;7.10;99.90
27567;DHT22;15006;48.584;9.186;2023-11-19T04:34:05;7.10;99.90
27567;DHT22;15006;48.584;9.186;2023-11-19T04:36:32;7.10;99.90
27567;DHT22;15006;48.584;9.186;2023-11-19T04:38:59;7.10;99.90
27567;DHT22;15006;48.584;9.186;2023-11-19T04:41:25;7.10;99.90
27567;DHT22;15006;48.584;9.186;2023-11-19T04:43:53;7.10;99.90
27567;DHT22;15006;48.584;9.186;2023-11-19T04:46:19;7.10;99.90
27567;DHT22;15006;48.584;9.186;2023-11-19T04:48:46;7.20;99.90
27567;DHT22;15006;48.584;9.186;2023-11-19T04:51:12;7.20;99.90
27567;DHT22;15006;48.584;9.186;2023-11-19T04:53:37;7.20;99.90
27567;DHT22;15006;48.584;9.186;2023-11-19T04:56:09;7.20;99.90
27567;DHT22;15006;48.584;9.186;2023-11-19T04:58:36;7.30;99.90
27567;DHT22;15006;48.584;9.186;2023-11-19T05:01:03;7.30;99.90
27567;DHT22;15006;48.584;9.186;2023-11-19T05:03:30;7.40;99.90
27567;DHT22;15006;48.584;9.186;2023-11-19T05:05:57;7.40;99.90
27567;DHT22;15006;48.584;9.186;2023-11-19T05:08:23;7.40;99.90
27567;DHT22;15006;48.584;9.186;2023-11-19T05:10:49;7.40;99.90
27567;DHT22;15006;48.584;9.186;2023-11-19T05:13:15;7.50;99.90
27567;DHT22;15006;48.584;9.186;2023-11-19T05:15:41;7.50;99.90
27567;DHT22;15006;48.584;9.186;2023-11-19T05:18:06;7.60;99.90
27567;DHT22;15006;48.584;9.186;2023-11-19T05:20:32;7.60;99.90
27567;DHT22;15006;48.584;9.186;2023-11-19T05:22:58;7.60;99.90
27567;DHT22;15006;48.584;9.186;2023-11-19T05:25:26;7.60;99.90
27567;DHT22;15006;48.584;9.186;2023-11-19T05:27:52;7.70;99.90
27567;DHT22;15006;48.584;9.186;2023-11-19T05:30:18;7.70;99.90
27567;DHT22;15006;48.584;9.186;2023-11-19T05:32:44;7.70;99.90
27567;DHT22;15006;48.584;9.186;2023-11-19T05:35:11;7.80;99.90
27567;DHT22;15006;48.584;9.186;2023-11-19T05:37:37;7.80;99.90
27567;DHT22;15006;48.584;9.186;2023-11-19T05:40:03;7.80;99.90
27567;DHT22;15006;48.584;9.186;2023-11-19T05:42:32;7.80;99.90
27567;DHT22;15006;48.584;9.186;2023-11-19T05:44:58;7.80;99.90
27567;DHT22;15006;48.584;9.186;2023-11-19T05:47:24;7.80;99.90
27567;DHT22;15006;48.584;9.186;2023-11-19T05:49:49;7.90;99.90
27567;DHT22;15006;48.584;9.186;2023-11-19T05:52:15;7.90;99.90
27567;DHT22;15006;48.584;9.186;2023-11-19T05:54:41;7.90;99.90
27567;DHT22;15006;48.584;9.186;2023-11-19T05:57:07;8.00;99.90
27567;DHT22;15006;48.584;9.186;2023-11-19T05:59:35;8.00;99.90
27567;DHT22;15006;48.584;9.186;2023-11-19T06:02:02;8.00;99.90
27567;DHT22;15006;48.584;9.186;2023-11-19T06:04:28;8.00;99.90
27567;DHT22;15006;48.584;9.186;2023-11-19T06:06:54;8.00;99.90
27567;DHT22;15006;48.584;9.186;2023-11-19T06:09:20;8.10;99.90
27567;DHT22;15006;48.584;9.186;2023-11-19T06:11:49;8.10;99.90
27567;DHT22;15006;48.584;9.186;2023-11-19T06:14:16;8.10;99.90
27567;DHT22;15006;48.584;9.186;2023-11-19T06:16:42;8.10;99.90
27567;DHT22;15006;48.584;9.186;2023-11-19T06:19:08;8.10;99.90
27567;DHT22;15006;48.584;9.186;2023-11-19T06:21:36;8.20;99.90
27567;DHT22;15006;48.584;9.186;2023-11-19T06:24:02;8.20;99.90
27567;DHT22;15006;48.584;9.186;2023-11-19T06:26:29;8.20;99.90
27567;DHT22;15006;48.584;9.186;2023-11-19T06:31:30;8.20;99.90
27567;DHT22;15006;48.584;9.186;2023-11-19T06:33:56;8.20;99.90
27567;DHT22;15006;48.584;9.186;2023-11-19T06:36:22;8.20;99.90
27567;DHT22;15006;48.584;9.186;2023-11-19T06:38:48;8.20;99.90
27567;DHT22;15006;48.584;9.186;2023-11-19T06:41:14;8.20;99.90
27567;DHT22;15006;48.584;9.186;2023-11-19T06:43:40;8.20;99.90
27567;DHT22;15006;48.584;9.186;2023-11-19T06:46:06;8.20;99.90
27567;DHT22;15006;48.584;9.186;2023-11-19T06:48:40;8.20;99.90
27567;DHT22;15006;48.584;9.186;2023-11-19T06:51:06;8.10;99.90
27567;DHT22;15006;48.584;9.186;2023-11-19T06:53:32;8.10;99.90
27567;DHT22;15006;48.584;9.186;2023-11-19T06:55:58;8.10;99.90
27567;DHT22;15006;48.584;9.186;2023-11-19T06:58:24;8.10;99.90
27567;DHT22;15006;48.584;9.186;2023-11-19T07:00:50;8.10;99.90
27567;DHT22;15006;48.584;9.186;2023-11-19T07:03:16;8.10;99.90
27567;DHT22;15006;48.584;9.186;2023-11-19T07:05:42;8.10;99.90
27567;DHT22;15006;48.584;9.186;2023-11-19T07:08:09;8.10;99.90
27567;DHT22;15006;48.584;9.186;2023-11-19T07:10:35;8.10;99.90
27567;DHT22;15006;48.584;9.186;2023-11-19T07:13:01;8.10;99.90
27567;DHT22;15006;48.584;9.186;2023-11-19T07:15:28;8.10;99.90
27567;DHT22;15006;48.584;9.186;2023-11-19T07:17:53;8.10;99.90
27567;DHT22;15006;48.584;9.186;2023-11-19T07:20:20;8.10;99.90
27567;DHT22;15006;48.584;9.186;2023-11-19T07:22:46;8.10;99.90
27567;DHT22;15006;48.584;9.186;2023-11-19T07:25:14;8.20;99.90
27567;DHT22;15006;48.584;9.186;2023-11-19T07:27:40;8.20;99.90
27567;DHT22;15006;48.584;9.186;2023-11-19T07:30:06;8.20;99.90
27567;DHT22;15006;48.584;9.186;2023-11-19T07:32:35;8.20;99.90
27567;DHT22;15006;48.584;9.186;2023-11-19T07:35:01;8.20;99.90
27567;DHT22;15006;48.584;9.186;2023-11-19T07:37:27;8.20;99.90
27567;DHT22;15006;48.584;9.186;2023-11-19T07:39:55;8.20;99.90
27567;DHT22;15006;48.584;9.186;2023-11-19T07:42:21;8.30;99.90
27567;DHT22;15006;48.584;9.186;2023-11-19T07:44:47;8.30;99.90
27567;DHT22;15006;48.584;9.186;2023-11-19T07:47:13;8.30;99.90
27567;DHT22;15006;48.584;9.186;2023-11-19T07:49:38;8.30;99.90
27567;DHT22;15006;48.584;9.186;2023-11-19T07:52:04;8.30;99.90
27567;DHT22;15006;48.584;9.186;2023-11-19T07:54:30;8.30;99.90
27567;DHT22;15006;48.584;9.186;2023-11-19T07:56:56;8.30;99.90
27567;DHT22;15006;48.584;9.186;2023-11-19T07:59:22;8.30;99.90
27567;DHT22;15006;48.584;9.186;2023-11-19T08:01:48;8.30;99.90
27567;DHT22;15006;48.584;9.186;2023-11-19T08:04:14;8.30;99.90
27567;DHT22;15006;48.584;9.186;2023-11-19T08:06:39;8.40;99.90
27567;DHT22;15006;48.584;9.186;2023-11-19T08:09:06;8.40;99.90
27567;DHT22;15006;48.584;9.186;2023-11-19T08:11:32;8.40;99.90
27567;DHT22;15006;48.584;9.186;2023-11-19T08:13:59;8.40;99.90
27567;DHT22;15006;48.584;9.186;2023-11-19T08:16:25;8.40;99.90
27567;DHT22;15006;48.584;9.186;2023-11-19T08:18:50;8.50;99.90
27567;DHT22;15006;48.584;9.186;2023-11-19T08:21:16;8.50;99.90
27567;DHT22;15006;48.584;9.186;2023-11-19T08:23:42;8.50;99.90
27567;DHT22;15006;48.584;9.186;2023-11-19T08:26:08;8.50;99.90
27567;DHT22;15006;48.584;9.186;2023-11-19T08:28:36;8.50;99.90
27567;DHT22;15006;48.584;9.186;2023-11-19T08:31:03;8.50;99.90
27567;DHT22;15006;48.584;9.186;2023-11-19T08:33:30;8.60;99.90
27567;DHT22;15006;48.584;9.186;2023-11-19T08:35:56;8.60;99.90
27567;DHT22;15006;48.584;9.186;2023-11-19T08:38:22;8.60;99.90
27567;DHT22;15006;48.584;9.186;2023-11-19T08:40:48;8.60;99.90
27567;DHT22;15006;48.584;9.186;2023-11-19T08:43:14;8.60;99.90
27567;DHT22;15006;48.584;9.186;2023-11-19T08:45:39;8.70;99.90
27567;DHT22;15006;48.584;9.186;2023-11-19T08:48:05;8.70;99.90
27567;DHT22;15006;48.584;9.186;2023-11-19T08:50:31;8.70;99.90
27567;DHT22;15006;48.584;9.186;2023-11-19T08:52:57;8.80;99.90
27567;DHT22;15006;48.584;9.186;2023-11-19T08:55:23;8.80;99.90
27567;DHT22;15006;48.584;9.186;2023-11-19T08:57:49;8.90;99.90
27567;DHT22;15006;48.584;9.186;2023-11-19T09:00:15;8.90;99.90
27567;DHT22;15006;48.584;9.186;2023-11-19T09:02:41;9.00;99.90
27567;DHT22;15006;48.584;9.186;2023-11-19T09:05:08;9.00;99.90
27567;DHT22;15006;48.584;9.186;2023-11-19T09:07:34;9.10;99.90
27567;DHT22;15006;48.584;9.186;2023-11-19T09:10:01;9.10;99.90
27567;DHT22;15006;48.584;9.186;2023-11-19T09:12:27;9.20;99.90
27567;DHT22;15006;48.584;9.186;2023-11-19T09:14:53;9.20;99.90
27567;DHT22;15006;48.584;9.186;2023-11-19T09:17:19;9.30;99.90
27567;DHT22;15006;48.584;9.186;2023-11-19T09:19:45;9.30;99.90
27567;DHT22;15006;48.584;9.186;2023-11-19T09:22:11;9.40;99.90
27567;DHT22;15006;48.584;9.186;2023-11-19T09:24:37;9.40;99.90
27567;DHT22;15006;48.584;9.186;2023-11-19T09:27:03;9.50;99.90
27567;DHT22;15006;48.584;9.186;2023-11-19T09:29:31;9.60;99.90
27567;DHT22;15006;48.584;9.186;2023-11-19T09:31:58;9.70;99.90
27567;DHT22;15006;48.584;9.186;2023-11-19T09:34:24;9.80;99.90
27567;DHT22;15006;48.584;9.186;2023-11-19T09:36:50;9.90;99.90
27567;DHT22;15006;48.584;9.186;2023-11-19T09:39:16;10.00;99.90
27567;DHT22;15006;48.584;9.186;2023-11-19T09:41:43;10.00;99.90
27567;DHT22;15006;48.584;9.186;2023-11-19T09:44:10;10.10;99.90
27567;DHT22;15006;48.584;9.186;2023-11-19T09:46:38;10.10;99.90
27567;DHT22;15006;48.584;9.186;2023-11-19T09:49:06;10.20;99.90
27567;DHT22;15006;48.584;9.186;2023-11-19T09:51:35;10.30;99.90
27567;DHT22;15006;48.584;9.186;2023-11-19T09:54:01;10.30;99.90
27567;DHT22;15006;48.584;9.186;2023-11-19T09:56:28;10.30;99.90
27567;DHT22;15006;48.584;9.186;2023-11-19T09:58:55;10.30;99.90
27567;DHT22;15006;48.584;9.186;2023-11-19T10:01:21;10.30;99.90
27567;DHT22;15006;48.584;9.186;2023-11-19T10:03:47;10.30;99.90
27567;DHT22;15006;48.584;9.186;2023-11-19T10:06:13;10.30;99.80
27567;DHT22;15006;48.584;9.186;2023-11-19T10:08:41;10.30;99.90
27567;DHT22;15006;48.584;9.186;2023-11-19T10:11:07;10.40;99.00
27567;DHT22;15006;48.584;9.186;2023-11-19T10:13:37;10.30;99.90
27567;DHT22;15006;48.584;9.186;2023-11-19T10:16:08;10.40;99.80
27567;DHT22;15006;48.584;9.186;2023-11-19T10:18:37;10.40;99.20
27567;DHT22;15006;48.584;9.186;2023-11-19T10:21:06;10.40;99.90
27567;DHT22;15006;48.584;9.186;2023-11-19T10:26:19;10.50;99.60
27567;DHT22;15006;48.584;9.186;2023-11-19T10:28:46;10.60;99.90
27567;DHT22;15006;48.584;9.186;2023-11-19T10:31:13;10.70;99.90
27567;DHT22;15006;48.584;9.186;2023-11-19T10:33:39;10.80;99.90
27567;DHT22;15006;48.584;9.186;2023-11-19T10:36:06;10.80;99.90
27567;DHT22;15006;48.584;9.186;2023-11-19T10:38:33;10.80;99.90
27567;DHT22;15006;48.584;9.186;2023-11-19T10:41:02;10.90;99.90
27567;DHT22;15006;48.584;9.186;2023-11-19T10:43:28;10.90;98.40
27567;DHT22;15006;48.584;9.186;2023-11-19T10:45:54;10.90;98.70
27567;DHT22;15006;48.584;9.186;2023-11-19T10:48:20;11.00;98.70
27567;DHT22;15006;48.584;9.186;2023-11-19T10:50:49;11.10;99.10
27567;DHT22;15006;48.584;9.186;2023-11-19T10:53:21;11.10;99.90
27567;DHT22;15006;48.584;9.186;2023-11-19T10:55:48;11.20;98.30
27567;DHT22;15006;48.584;9.186;2023-11-19T10:58:16;11.30;99.30
27567;DHT22;15006;48.584;9.186;2023-11-19T11:00:49;11.30;98.20
27567;DHT22;15006;48.584;9.186;2023-11-19T11:03:18;11.30;97.90
27567;DHT22;15006;48.584;9.186;2023-11-19T11:05:49;11.30;98.10
27567;DHT22;15006;48.584;9.186;2023-11-19T11:08:17;11.40;99.10
27567;DHT22;15006;48.584;9.186;2023-11-19T11:10:52;11.50;99.90
27567;DHT22;15006;48.584;9.186;2023-11-19T11:13:19;11.70;99.90
27567;DHT22;15006;48.584;9.186;2023-11-19T11:15:46;11.90;98.40
27567;DHT22;15006;48.584;9.186;2023-11-19T11:18:13;12.10;96.70
27567;DHT22;15006;48.584;9.186;2023-11-19T11:20:39;12.30;97.50
27567;DHT22;15006;48.584;9.186;2023-11-19T11:28:37;13.00;93.80
27567;DHT22;15006;48.584;9.186;2023-11-19T11:32:00;13.10;92.70
27567;DHT22;15006;48.584;9.186;2023-11-19T11:34:16;13.20;93.80
27567;DHT22;15006;48.584;9.186;2023-11-19T11:36:53;13.20;91.10
27567;DHT22;15006;48.584;9.186;2023-11-19T11:39:21;13.10;90.70
27567;DHT22;15006;48.584;9.186;2023-11-19T11:41:47;13.10;91.40
27567;DHT22;15006;48.584;9.186;2023-11-19T11:45:02;13.10;91.40
27567;DHT22;15006;48.584;9.186;2023-11-19T11:50:12;13.00;90.30
27567;DHT22;15006;48.584;9.186;2023-11-19T11:55:26;13.00;90.00
27567;DHT22;15006;48.584;9.186;2023-11-19T11:57:53;12.90;90.00
27567;DHT22;15006;48.584;9.186;2023-11-19T12:02:56;12.80;88.50
27567;DHT22;15006;48.584;9.186;2023-11-19T12:05:23;12.80;89.10
27567;DHT22;15006;48.584;9.186;2023-11-19T12:07:55;12.80;90.40
27567;DHT22;15006;48.584;9.186;2023-11-19T12:10:30;12.80;91.30
27567;DHT22;15006;48.584;9.186;2023-11-19T12:13:00;12.80;91.20
27567;DHT22;15006;48.584;9.186;2023-11-19T12:15:27;12.80;90.20
27567;DHT22;15006;48.584;9.186;2023-11-19T12:17:54;12.70;90.00
27567;DHT22;15006;48.584;9.186;2023-11-19T12:20:21;12.60;90.80
27567;DHT22;15006;48.584;9.186;2023-11-19T12:29:28;12.40;91.80
27567;DHT22;15006;48.584;9.186;2023-11-19T12:32:07;12.30;90.00
27567;DHT22;15006;48.584;9.186;2023-11-19T12:34:33;12.20;89.20
27567;DHT22;15006;48.584;9.186;2023-11-19T12:37:02;12.20;91.50
27567;DHT22;15006;48.584;9.186;2023-11-19T12:39:30;12.10;90.80
27567;DHT22;15006;48.584;9.186;2023-11-19T12:41:56;12.10;91.10
27567;DHT22;15006;48.584;9.186;2023-11-19T12:44:27;12.10;90.50
27567;DHT22;15006;48.584;9.186;2023-11-19T12:47:03;12.20;90.10
27567;DHT22;15006;48.584;9.186;2023-11-19T12:49:30;12.40;90.70
27567;DHT22;15006;48.584;9.186;2023-11-19T12:51:56;12.50;91.20
27567;DHT22;15006;48.584;9.186;2023-11-19T12:54:35;12.60;91.00
27567;DHT22;15006;48.584;9.186;2023-11-19T12:57:01;12.70;91.10
27567;DHT22;15006;48.584;9.186;2023-11-19T12:59:28;12.80;90.40
27567;DHT22;15006;48.584;9.186;2023-11-19T13:01:57;12.90;86.00
27567;DHT22;15006;48.584;9.186;2023-11-19T13:04:23;12.80;87.00
27567;DHT22;15006;48.584;9.186;2023-11-19T13:06:52;12.80;87.50
27567;DHT22;15006;48.584;9.186;2023-11-19T13:09:25;12.70;81.80
27567;DHT22;15006;48.584;9.186;2023-11-19T13:11:55;12.60;84.60
27567;DHT22;15006;48.584;9.186;2023-11-19T13:14:22;12.60;87.40
27567;DHT22;15006;48.584;9.186;2023-11-19T13:16:49;12.40;86.40
27567;DHT22;15006;48.584;9.186;2023-11-19T13:19:15;12.40;86.00
27567;DHT22;15006;48.584;9.186;2023-11-19T13:21:45;12.50;82.00
27567;DHT22;15006;48.584;9.186;2023-11-19T13:24:13;12.50;84.40
27567;DHT22;15006;48.584;9.186;2023-11-19T13:26:39;12.70;85.70
27567;DHT22;15006;48.584;9.186;2023-11-19T13:29:05;12.80;85.30
27567;DHT22;15006;48.584;9.186;2023-11-19T13:31:30;12.90;85.60
27567;DHT22;15006;48.584;9.186;2023-11-19T13:33:56;12.90;84.80
27567;DHT22;15006;48.584;9.186;2023-11-19T13:36:24;13.00;81.30
27567;DHT22;15006;48.584;9.186;2023-11-19T13:38:51;12.90;83.80
27567;DHT22;15006;48.584;9.186;2023-11-19T13:41:25;12.80;82.10
27567;DHT22;15006;48.584;9.186;2023-11-19T13:43:51;12.80;82.50
27567;DHT22;15006;48.584;9.186;2023-11-19T13:46:17;12.70;81.20
27567;DHT22;15006;48.584;9.186;2023-11-19T13:48:43;12.80;78.30
27567;DHT22;15006;48.584;9.186;2023-11-19T13:51:09;13.00;81.50
27567;DHT22;15006;48.584;9.186;2023-11-19T13:53:35;13.30;82.00
27567;DHT22;15006;48.584;9.186;2023-11-19T13:56:01;13.50;78.40
27567;DHT22;15006;48.584;9.186;2023-11-19T13:58:27;13.60;81.80
27567;DHT22;15006;48.584;9.186;2023-11-19T14:00:54;13.70;77.60
27567;DHT22;15006;48.584;9.186;2023-11-19T14:03:20;13.80;81.60
27567;DHT22;15006;48.584;9.186;2023-11-19T14:05:45;14.00;80.40
27567;DHT22;15006;48.584;9.186;2023-11-19T14:08:11;14.10;81.30
27567;DHT22;15006;48.584;9.186;2023-11-19T14:10:38;14.20;81.70
27567;DHT22;15006;48.584;9.186;2023-11-19T14:13:07;14.30;77.80
27567;DHT22;15006;48.584;9.186;2023-11-19T14:15:33;14.40;73.80
27567;DHT22;15006;48.584;9.186;2023-11-19T14:17:59;14.30;77.50
27567;DHT22;15006;48.584;9.186;2023-11-19T14:20:26;14.30;78.90
27567;DHT22;15006;48.584;9.186;2023-11-19T14:22:52;14.20;74.70
27567;DHT22;15006;48.584;9.186;2023-11-19T14:25:18;14.00;75.00
27567;DHT22;15006;48.584;9.186;2023-11-19T14:27:44;13.90;73.50
27567;DHT22;15006;48.584;9.186;2023-11-19T14:30:13;13.70;76.20
27567;DHT22;15006;48.584;9.186;2023-11-19T14:32:40;13.60;76.00
27567;DHT22;15006;48.584;9.186;2023-11-19T14:35:11;13.60;75.60
27567;DHT22;15006;48.584;9.186;2023-11-19T14:37:37;13.50;76.00
27567;DHT22;15006;48.584;9.186;2023-11-19T14:40:03;13.40;75.20
27567;DHT22;15006;48.584;9.186;2023-11-19T14:42:32;13.30;73.90
27567;DHT22;15006;48.584;9.186;2023-11-19T14:44:58;13.10;75.80
27567;DHT22;15006;48.584;9.186;2023-11-19T14:47:27;12.90;75.30
27567;DHT22;15006;48.584;9.186;2023-11-19T14:49:54;12.70;77.60
27567;DHT22;15006;48.584;9.186;2023-11-19T14:52:20;12.50;78.20
27567;DHT22;15006;48.584;9.186;2023-11-19T14:54:46;12.30;79.30
27567;DHT22;15006;48.584;9.186;2023-11-19T14:57:12;12.10;79.20
27567;DHT22;15006;48.584;9.186;2023-11-19T14:59:38;12.00;78.50
27567;DHT22;15006;48.584;9.186;2023-11-19T15:02:04;11.80;79.00
27567;DHT22;15006;48.584;9.186;2023-11-19T15:04:31;11.70;80.70
27567;DHT22;15006;48.584;9.186;2023-11-19T15:06:57;11.60;80.30
27567;DHT22;15006;48.584;9.186;2023-11-19T15:09:23;11.50;80.80
27567;DHT22;15006;48.584;9.186;2023-11-19T15:11:50;11.40;81.70
27567;DHT22;15006;48.584;9.186;2023-11-19T15:14:16;11.30;82.30
27567;DHT22;15006;48.584;9.186;2023-11-19T15:16:44;11.20;81.80
27567;DHT22;15006;48.584;9.186;2023-11-19T15:19:11;11.10;81.90
27567;DHT22;15006;48.584;9.186;2023-11-19T15:24:08;11.00;81.30
27567;DHT22;15006;48.584;9.186;2023-11-19T15:26:35;10.90;81.80
27567;DHT22;15006;48.584;9.186;2023-11-19T15:29:04;10.90;83.50
27567;DHT22;15006;48.584;9.186;2023-11-19T15:31:30;10.80;82.00
27567;DHT22;15006;48.584;9.186;2023-11-19T15:33:57;10.80;83.30
27567;DHT22;15006;48.584;9.186;2023-11-19T15:36:23;10.80;84.20
27567;DHT22;15006;48.584;9.186;2023-11-19T15:38:49;10.70;84.50
27567;DHT22;15006;48.584;9.186;2023-11-19T15:41:14;10.60;85.20
27567;DHT22;15006;48.584;9.186;2023-11-19T15:43:40;10.60;86.40
27567;DHT22;15006;48.584;9.186;2023-11-19T15:46:07;10.60;86.80
27567;DHT22;15006;48.584;9.186;2023-11-19T15:48:34;10.50;85.80
27567;DHT22;15006;48.584;9.186;2023-11-19T15:51:00;10.40;87.40
27567;DHT22;15006;48.584;9.186;2023-11-19T15:53:26;10.40;89.20
27567;DHT22;15006;48.584;9.186;2023-11-19T15:55:52;10.30;86.90
27567;DHT22;15006;48.584;9.186;2023-11-19T15:58:20;10.30;88.80
27567;DHT22;15006;48.584;9.186;2023-11-19T16:00:48;10.30;88.30
27567;DHT22;15006;48.584;9.186;2023-11-19T16:03:14;10.20;90.00
27567;DHT22;15006;48.584;9.186;2023-11-19T16:05:40;10.20;90.40
27567;DHT22;15006;48.584;9.186;2023-11-19T16:08:06;10.20;89.30
27567;DHT22;15006;48.584;9.186;2023-11-19T16:10:35;10.20;89.70